Aérodrome :
LOGIN :

S'inscrire | Disclaimer

   EN    FR    IT 

 










Légende :    VFR   VFR Marginal   IFR   IFR Intensif   IFR Très Intensif
Visi : 
Plafond : 
>= 8 km
>= 3000ft
5 à 8 km
1000 à 3000 ft
1500m à 5 km
500 à 1000 ft
800 à 1500m
200 à 500 ft
< 800m
< 200 ft
Symboles :   Orages  Brouillard  Fortes neiges  Fortes précipitations  Vent > 20 kt
SIGMETs :   Divers  Orages  Givrage  Turbulence  Onde Orograph.  Cendres Volcan.







- Altitude de l'aérodrome : 424 ft
- Code IATA : QGY


LHPR - Györ Per

DERNIER METAR :
  • 211045Z 08005KT 020V180 CAVOK 22/10 Q1018 RMK BLU

METARs EXPIRÉS :
  • 211015Z 05006KT 360V150 CAVOK 22/09 Q1018 RMK BLU
  • 210945Z 05009KT 010V110 CAVOK 21/08 Q1019 RMK BLU
  • 210915Z 07007KT 020V110 9999 FEW046 21/09 Q1019 RMK BLU
  • 210845Z 05008KT 010V100 CAVOK 20/09 Q1019 RMK BLU
  • 210815Z 06007KT 010V100 CAVOK 20/09 Q1019 RMK BLU
  • 210745Z 05008KT 020V110 CAVOK 19/09 Q1019 RMK BLU

TAF TAF LHPR
Valide du 21 à 09h jusqu'au 21 à 18h UTC


210815Z 2109/2118 07006KT CAVOK
Pas de NOTAMs connus pour ce terrain.



MET'MAP, la Météo Aéronautique d'un coup d'oeil ! - Copyright ORBIFLY Décembre 2007 - Disclaimer

ORBIFLY MET'MAP TEAM :

Programmation & Développement : Alexandra Zaïnal
Conception & Développement : Baudouin d'Aumeries
Co-Programmation & Développement : Marc-Olivier Méhu
Soutien technique & logistique : Manuel Goepfert

Contact : metmap@orbifly.com




SOURCES & CREDITS :

   NOAA